Time;durP1;ratioP1;P1;durP2;ratioP2;P2;SDS_P1;SDS_P2;PMS_P1;PMS_P2;Temp;Humidity;BMP_temperature;BMP_pressure;BME280_temperature;BME280_humidity;BME280_pressure;Samples;Min_cycle;Max_cycle;Signal;HPM_P1;HPM_P2
2023/02/25 00:02:29;;;;;;;3.93;0.93;;;;;;;7.58;71.68;95905.22;6259606;28;20427;-79
2023/02/25 00:05:32;;;;;;;1.83;0.90;;;;;;;8.04;70.86;95950.28;6260276;28;20257;-79
2023/02/25 00:08:35;;;;;;;3.30;1.00;;;;;;;7.18;71.25;95814.13;6278901;28;20316;-79
2023/02/25 00:11:37;;;;;;;0.93;0.73;;;;;;;8.19;69.75;95958.19;6280562;28;20230;-80
2023/02/25 00:14:39;;;;;;;1.93;0.83;;;;;;;7.62;69.74;95869.97;6243438;28;20226;-80
2023/02/25 00:17:42;;;;;;;5.43;1.00;;;;;;;8.25;69.29;95955.25;6264875;28;20218;-78
2023/02/25 00:20:44;;;;;;;1.53;0.83;;;;;;;8.32;68.78;95962.13;6282432;28;20298;-79
2023/02/25 00:23:49;;;;;;;0.80;0.80;;;;;;;7.95;69.11;95913.69;6266552;28;20267;-79
2023/02/25 00:26:51;;;;;;;2.10;0.70;;;;;;;8.30;68.13;95965.06;6280229;28;20325;-79
2023/02/25 00:29:54;;;;;;;1.53;0.80;;;;;;;8.27;68.41;95952.31;6270643;28;20219;-81
2023/02/25 00:32:57;;;;;;;1.57;0.60;;;;;;;7.92;68.40;95910.75;6251887;28;20386;-79
2023/02/25 00:35:59;;;;;;;2.83;0.57;;;;;;;8.31;69.38;95969.28;6281673;28;20229;-79
2023/02/25 00:39:02;;;;;;;1.40;0.67;;;;;;;8.31;69.60;95969.28;6251360;28;20233;-78
2023/02/25 00:42:04;;;;;;;2.13;0.60;;;;;;;8.28;69.38;95964.53;6255376;28;20582;-79
2023/02/25 00:45:07;;;;;;;2.27;0.70;;;;;;;7.98;67.76;95947.63;6265248;28;20731;-80
2023/02/25 00:48:09;;;;;;;0.90;0.60;;;;;;;8.09;69.07;95945.75;6260882;28;20672;-81
2023/02/25 00:51:23;;;;;;;1.17;0.50;;;;;;;8.18;68.28;95951.31;6244357;28;20206;-79
2023/02/25 00:54:25;;;;;;;2.27;0.93;;;;;;;7.79;68.33;95885.63;6238887;28;20238;-79
2023/02/25 00:57:27;;;;;;;2.53;0.97;;;;;;;7.79;68.27;95879.53;6283161;28;20734;-79
2023/02/25 01:00:30;;;;;;;1.23;0.80;;;;;;;7.65;68.33;95852.78;6280301;28;20226;-78
2023/02/25 01:03:41;;;;;;;1.07;0.90;;;;;;;8.18;68.97;95922.91;6267149;28;20709;-77
2023/02/25 01:06:43;;;;;;;2.83;0.63;;;;;;;7.72;70.15;95861.22;6275274;28;20699;-78
2023/02/25 01:09:46;;;;;;;2.60;0.93;;;;;;;7.72;70.70;95866.53;6261127;28;20225;-78
2023/02/25 01:12:48;;;;;;;1.93;1.10;;;;;;;7.99;71.70;95922.69;6277529;28;20234;-79
2023/02/25 01:15:50;;;;;;;1.57;1.47;;;;;;;6.30;68.65;95733.09;6279484;28;20237;-81
2023/02/25 01:18:58;;;;;;;3.50;1.90;;;;;;;7.23;68.32;95935.94;6279845;28;20230;-81
2023/02/25 01:22:00;;;;;;;3.47;2.33;;;;;;;6.85;69.18;95914.19;6268193;28;20580;-79
2023/02/25 01:25:02;;;;;;;3.67;2.40;;;;;;;6.90;69.30;95943.31;6269879;28;20321;-80
2023/02/25 01:28:05;;;;;;;3.83;2.33;;;;;;;7.03;69.70;95973.78;6275418;28;20234;-78
2023/02/25 01:31:15;;;;;;;2.17;1.87;;;;;;;6.98;69.94;95984.34;6277998;28;20291;-81
2023/02/25 01:34:18;;;;;;;2.77;2.03;;;;;;;6.41;70.91;95919.06;6275313;28;20313;-79
2023/02/25 01:37:20;;;;;;;3.73;2.43;;;;;;;6.78;71.36;96003.59;6276774;28;20330;-80
2023/02/25 01:40:24;;;;;;;3.30;1.70;;;;;;;6.70;71.25;96007.56;6271214;28;20235;-79
2023/02/25 01:43:27;;;;;;;1.47;1.30;;;;;;;6.42;71.50;95984.13;6273447;28;20698;-81
2023/02/25 01:46:30;;;;;;;2.17;1.37;;;;;;;6.58;72.31;96027.31;6273771;28;20786;-78
2023/02/25 01:49:44;;;;;;;1.13;0.97;;;;;;;6.34;72.54;96025.06;6271718;28;20241;-79
2023/02/25 01:52:47;;;;;;;1.07;0.93;;;;;;;6.23;72.89;96025.28;6276513;28;20248;-81
2023/02/25 01:55:50;;;;;;;1.73;1.20;;;;;;;5.89;73.60;95989.31;6264836;28;20231;-80
2023/02/25 01:58:53;;;;;;;0.90;0.80;;;;;;;6.12;74.07;96030.50;6276908;28;20433;-81
2023/02/25 02:01:56;;;;;;;1.73;0.90;;;;;;;6.15;74.21;96013.31;6273210;28;20246;-82
2023/02/25 02:04:58;;;;;;;1.00;0.70;;;;;;;6.09;73.08;96023.06;6265938;28;20247;-79
2023/02/25 02:08:00;;;;;;;2.73;0.90;;;;;;;5.80;73.64;95974.19;6260765;28;20731;-79
2023/02/25 02:11:02;;;;;;;0.87;0.57;;;;;;;6.25;74.46;96026.59;6283892;28;20260;-81
2023/02/25 02:14:07;;;;;;;0.60;0.50;;;;;;;5.81;75.14;95966.03;6274195;28;20715;-79
2023/02/25 02:17:22;;;;;;;1.13;0.77;;;;;;;5.52;74.31;95951.53;6278910;28;20232;-78
2023/02/25 02:20:49;;;;;;;1.03;0.63;;;;;;;5.88;73.32;96013.38;6276575;28;20312;-80
2023/02/25 02:24:14;;;;;;;0.50;0.50;;;;;;;5.79;74.09;96012.22;6282941;28;20223;-80
2023/02/25 02:27:54;;;;;;;0.70;0.60;;;;;;;5.69;74.21;95989.16;6256466;28;20711;-81
2023/02/25 02:31:24;;;;;;;1.20;0.80;;;;;;;5.71;74.81;95976.50;6227478;28;20223;-81
2023/02/25 02:34:29;;;;;;;0.50;0.50;;;;;;;5.73;73.86;95966.47;6248961;28;20608;-82
2023/02/25 02:37:52;;;;;;;0.53;0.50;;;;;;;5.40;73.33;95943.75;6234851;28;20236;-80
2023/02/25 02:41:16;;;;;;;0.40;0.40;;;;;;;5.31;73.13;95990.16;6250595;28;20779;-83
2023/02/25 02:44:47;;;;;;;0.43;0.40;;;;;;;5.21;73.11;95963.66;6246788;28;20331;-84
2023/02/25 02:47:56;;;;;;;0.67;0.57;;;;;;;5.04;74.46;95976.97;6228547;28;20672;-79
2023/02/25 02:51:02;;;;;;;0.53;0.53;;;;;;;4.96;74.48;95969.47;6248050;28;20588;-81
2023/02/25 02:54:08;;;;;;;0.47;0.40;;;;;;;4.85;75.53;95961.44;6264826;28;20718;-78
2023/02/25 02:57:13;;;;;;;0.83;0.70;;;;;;;4.65;75.29;95940.13;6241381;28;20246;-79
2023/02/25 03:00:18;;;;;;;0.77;0.40;;;;;;;4.53;75.78;95894.63;6241822;28;20203;-80
2023/02/25 03:03:35;;;;;;;1.03;0.60;;;;;;;4.85;75.53;95955.38;6245501;28;20305;-81
2023/02/25 03:06:44;;;;;;;0.30;0.30;;;;;;;4.91;75.48;95968.38;6262904;28;20859;-79
2023/02/25 03:09:52;;;;;;;1.90;0.70;;;;;;;4.99;75.23;95992.75;6260097;28;20243;-80
2023/02/25 03:12:54;;;;;;;0.30;0.30;;;;;;;4.91;76.03;96002.66;6257831;28;20788;-80
2023/02/25 03:15:59;;;;;;;0.20;0.20;;;;;;;4.97;75.39;96026.47;6261644;28;20341;-80
2023/02/25 03:19:09;;;;;;;0.30;0.30;;;;;;;4.74;74.71;96051.28;6268043;28;20586;-80
2023/02/25 03:22:26;;;;;;;2.27;0.40;;;;;;;4.31;74.37;95979.00;6258413;28;20342;-80
2023/02/25 03:25:46;;;;;;;0.30;0.30;;;;;;;4.57;74.58;96041.56;6280370;28;20722;-78
2023/02/25 03:28:52;;;;;;;0.20;0.20;;;;;;;4.74;75.26;96061.84;6260473;28;20220;-80
2023/02/25 03:32:03;;;;;;;0.17;0.17;;;;;;;3.73;75.46;95928.41;6269277;28;20258;-81
2023/02/25 03:35:08;;;;;;;0.20;0.20;;;;;;;4.13;74.24;96046.72;6267867;28;20385;-78
2023/02/25 03:38:16;;;;;;;0.10;0.10;;;;;;;4.44;73.99;96080.69;6260349;28;20242;-79
2023/02/25 03:41:21;;;;;;;0.20;0.20;;;;;;;4.25;73.83;96082.78;6242669;28;20241;-82
2023/02/25 03:44:35;;;;;;;0.93;0.20;;;;;;;4.12;74.56;96094.41;6263219;28;20241;-78
2023/02/25 03:47:38;;;;;;;0.20;0.10;;;;;;;3.63;73.28;96009.88;6266636;28;20226;-79
2023/02/25 03:50:51;;;;;;;0.10;0.10;;;;;;;3.98;74.34;96077.31;6267279;28;20619;-77
2023/02/25 03:53:53;;;;;;;0.40;0.20;;;;;;;3.73;74.49;96023.19;6266033;28;20241;-79
2023/02/25 03:57:01;;;;;;;0.20;0.20;;;;;;;3.46;74.90;95980.13;6282647;28;20233;-79
2023/02/25 04:00:14;;;;;;;0.20;0.20;;;;;;;3.92;75.09;96042.19;6259783;28;20326;-79
2023/02/25 04:03:16;;;;;;;0.10;0.10;;;;;;;3.58;75.87;95994.00;6259428;28;20227;-80
2023/02/25 04:06:23;;;;;;;0.80;0.20;;;;;;;3.85;75.31;96042.38;6267809;28;20607;-80
2023/02/25 04:09:25;;;;;;;0.20;0.20;;;;;;;3.88;74.99;96052.41;6285972;28;20238;-80
2023/02/25 04:12:27;;;;;;;0.20;0.20;;;;;;;3.94;73.65;96026.16;6261623;28;20303;-80
2023/02/25 04:15:30;;;;;;;0.20;0.20;;;;;;;3.80;74.29;96002.00;6283722;28;20242;-80
2023/02/25 04:18:32;;;;;;;0.20;0.10;;;;;;;3.70;74.09;95975.50;6263693;28;20591;-80
2023/02/25 04:21:36;;;;;;;0.20;0.20;;;;;;;4.00;73.38;96026.00;6265850;28;20226;-78
2023/02/25 04:24:38;;;;;;;0.40;0.20;;;;;;;3.97;72.97;96037.00;6266292;28;20801;-79
2023/02/25 04:27:41;;;;;;;0.20;0.20;;;;;;;3.99;72.85;96042.03;6283712;28;20284;-79
2023/02/25 04:30:43;;;;;;;0.73;0.20;;;;;;;4.06;73.33;96037.41;6275296;28;20674;-80
2023/02/25 04:33:48;;;;;;;0.10;0.10;;;;;;;3.76;74.55;95995.59;6260666;28;20223;-81
2023/02/25 04:36:51;;;;;;;0.10;0.10;;;;;;;3.81;72.12;96019.38;6282621;28;20338;-78
2023/02/25 04:39:53;;;;;;;0.10;0.10;;;;;;;3.90;72.92;96039.03;6269468;28;20227;-79
2023/02/25 04:42:55;;;;;;;0.17;0.10;;;;;;;3.51;73.62;95967.03;6248526;28;20590;-78
2023/02/25 04:45:57;;;;;;;0.40;0.20;;;;;;;3.46;72.09;95945.91;6282511;28;20309;-78
2023/02/25 04:49:00;;;;;;;0.90;0.50;;;;;;;3.82;72.63;96003.34;6282420;28;20233;-78
2023/02/25 04:52:02;;;;;;;0.43;0.30;;;;;;;3.80;72.88;95997.53;6262811;28;20696;-78
2023/02/25 04:55:05;;;;;;;0.20;0.20;;;;;;;3.81;72.99;95993.03;6262987;28;20243;-79
2023/02/25 04:58:07;;;;;;;2.00;0.30;;;;;;;3.72;71.21;95995.28;6278361;28;20560;-79
2023/02/25 05:01:10;;;;;;;0.20;0.20;;;;;;;3.71;72.52;96006.06;6246151;28;20367;-77
2023/02/25 05:04:12;;;;;;;0.27;0.27;;;;;;;3.42;71.24;95948.19;6258960;28;20233;-78
2023/02/25 05:07:14;;;;;;;0.30;0.30;;;;;;;3.72;72.35;96000.53;6259137;28;20230;-79
2023/02/25 05:10:16;;;;;;;0.20;0.20;;;;;;;3.48;73.68;95976.19;6280375;28;20609;-78
2023/02/25 05:13:19;;;;;;;0.30;0.30;;;;;;;3.53;71.88;95997.34;6276138;28;20825;-80
2023/02/25 05:16:21;;;;;;;0.30;0.30;;;;;;;3.40;71.08;95950.28;6280230;28;20602;-80
2023/02/25 05:19:24;;;;;;;0.20;0.20;;;;;;;3.39;71.36;95980.25;6279252;28;20231;-80
2023/02/25 05:22:26;;;;;;;1.30;0.40;;;;;;;3.39;70.51;95985.50;6281202;28;20698;-79
2023/02/25 05:25:29;;;;;;;0.30;0.30;;;;;;;3.48;69.91;95980.66;6265538;28;20261;-78
2023/02/25 05:28:31;;;;;;;0.20;0.20;;;;;;;3.51;70.19;95988.88;6277960;28;20312;-79
2023/02/25 05:31:34;;;;;;;0.50;0.40;;;;;;;3.52;69.54;96034.44;6249167;28;20919;-78
2023/02/25 05:34:36;;;;;;;0.20;0.20;;;;;;;3.01;69.69;95976.47;6278908;28;20697;-76
2023/02/25 05:37:39;;;;;;;0.27;0.27;;;;;;;3.47;70.26;96015.94;6279454;28;20234;-80
2023/02/25 05:40:41;;;;;;;0.27;0.27;;;;;;;3.44;70.44;96019.03;6279351;28;20313;-79
2023/02/25 05:43:44;;;;;;;0.20;0.20;;;;;;;3.19;70.42;95993.06;6276346;28;20720;-77
2023/02/25 05:46:46;;;;;;;0.37;0.37;;;;;;;3.07;70.23;95974.72;6276542;28;20291;-79
2023/02/25 05:49:48;;;;;;;0.30;0.30;;;;;;;3.41;70.32;96015.03;6258071;28;20318;-79
2023/02/25 05:52:51;;;;;;;0.37;0.30;;;;;;;3.22;70.44;96009.19;6273344;28;20367;-76
2023/02/25 05:55:54;;;;;;;0.40;0.40;;;;;;;3.17;70.62;96022.25;6278415;28;20670;-78
2023/02/25 05:58:56;;;;;;;0.10;0.10;;;;;;;3.43;69.84;96046.38;6278071;28;20259;-77
2023/02/25 06:01:58;;;;;;;0.20;0.20;;;;;;;3.45;70.47;96046.94;6278174;28;20843;-78
2023/02/25 06:05:01;;;;;;;0.20;0.20;;;;;;;3.11;70.37;96007.41;6281709;28;20368;-80
2023/02/25 06:08:03;;;;;;;0.30;0.30;;;;;;;3.39;70.22;96084.75;6262676;28;20597;-77
2023/02/25 06:11:06;;;;;;;0.20;0.20;;;;;;;3.39;70.63;96040.00;6259173;28;20317;-79
2023/02/25 06:14:08;;;;;;;0.20;0.20;;;;;;;2.94;70.93;96009.97;6261360;28;20726;-79
2023/02/25 06:17:10;;;;;;;0.93;0.57;;;;;;;3.37;70.39;96074.44;6268517;28;20226;-77
2023/02/25 06:20:15;;;;;;;0.30;0.30;;;;;;;3.38;70.00;96083.16;6274967;28;20230;-78
2023/02/25 06:23:17;;;;;;;0.30;0.30;;;;;;;3.36;69.40;96075.50;6224002;28;20222;-77
2023/02/25 06:26:19;;;;;;;0.30;0.30;;;;;;;2.80;68.96;96017.34;6269227;28;20234;-78
2023/02/25 06:29:23;;;;;;;0.30;0.30;;;;;;;3.18;69.56;96076.47;6279468;28;20253;-80
2023/02/25 06:32:25;;;;;;;0.40;0.40;;;;;;;3.24;69.48;96087.88;6275648;28;20583;-77
2023/02/25 06:35:28;;;;;;;0.50;0.50;;;;;;;3.33;69.27;96091.75;6274292;28;20238;-78
2023/02/25 06:38:31;;;;;;;0.40;0.40;;;;;;;3.27;69.93;96116.38;6282681;28;20676;-79
2023/02/25 06:41:33;;;;;;;0.40;0.40;;;;;;;2.96;69.87;96065.00;6282608;28;20258;-77
2023/02/25 06:44:35;;;;;;;0.73;0.60;;;;;;;3.35;69.38;96116.00;6264571;28;20597;-80
2023/02/25 06:47:37;;;;;;;0.43;0.43;;;;;;;3.24;70.14;96136.03;6277494;28;20854;-78
2023/02/25 06:50:40;;;;;;;0.40;0.40;;;;;;;3.45;68.93;96113.56;6277797;28;20309;-78
2023/02/25 06:53:46;;;;;;;0.60;0.50;;;;;;;3.59;69.00;96133.28;6280571;28;20269;-79
2023/02/25 06:56:48;;;;;;;2.00;0.40;;;;;;;3.49;69.36;96113.88;6259521;28;20587;-80
2023/02/25 06:59:52;;;;;;;0.47;0.40;;;;;;;3.35;69.38;96094.97;6258008;28;20284;-79
2023/02/25 07:02:54;;;;;;;0.30;0.30;;;;;;;3.77;68.37;96142.84;6266601;28;20659;-77
2023/02/25 07:05:56;;;;;;;0.40;0.40;;;;;;;3.61;69.13;96112.00;6270274;28;20696;-78
2023/02/25 07:08:58;;;;;;;1.40;0.40;;;;;;;3.65;68.09;96125.50;6272558;28;20700;-77
2023/02/25 07:12:00;;;;;;;0.40;0.20;;;;;;;3.18;68.15;96046.72;6245265;28;20607;-75
2023/02/25 07:15:03;;;;;;;0.30;0.30;;;;;;;3.46;68.06;96101.19;6241694;28;20230;-77
2023/02/25 07:18:05;;;;;;;0.20;0.20;;;;;;;3.49;68.54;96084.91;6244324;28;20207;-80
2023/02/25 07:21:11;;;;;;;0.20;0.20;;;;;;;3.50;67.50;96094.44;6254953;28;20610;-76
2023/02/25 07:24:13;;;;;;;0.27;0.27;;;;;;;4.03;67.14;96170.41;6222704;28;20207;-76
2023/02/25 07:27:15;;;;;;;0.27;0.27;;;;;;;4.18;66.18;96156.69;6278093;28;20356;-79
2023/02/25 07:30:18;;;;;;;0.30;0.30;;;;;;;3.86;65.56;96128.25;6257741;28;20692;-78
2023/02/25 07:33:20;;;;;;;0.20;0.20;;;;;;;4.16;64.83;96158.00;6274717;28;20229;-82
2023/02/25 07:36:22;;;;;;;0.30;0.30;;;;;;;4.01;64.45;96161.16;6279255;28;20222;-79
2023/02/25 07:39:24;;;;;;;0.40;0.40;;;;;;;4.01;63.85;96175.13;6276068;28;20230;-80
2023/02/25 07:42:27;;;;;;;0.33;0.30;;;;;;;3.95;64.57;96191.09;6274836;28;20575;-81
2023/02/25 07:45:33;;;;;;;1.27;0.60;;;;;;;3.89;65.13;96203.34;6244507;28;20230;-79
2023/02/25 07:48:35;;;;;;;0.40;0.40;;;;;;;3.88;64.45;96178.06;6258532;28;20649;-81
2023/02/25 07:51:38;;;;;;;0.60;0.40;;;;;;;3.40;64.84;96091.59;6216867;28;20230;-82
2023/02/25 07:54:40;;;;;;;0.40;0.40;;;;;;;3.92;64.76;96126.50;6244810;28;20241;-79
2023/02/25 07:57:42;;;;;;;0.57;0.57;;;;;;;4.26;63.94;96173.97;6256679;28;20680;-80
2023/02/25 08:00:45;;;;;;;0.40;0.40;;;;;;;3.85;63.06;96139.84;6232723;28;20310;-80
2023/02/25 08:03:48;;;;;;;0.40;0.40;;;;;;;3.71;64.23;96135.88;6218981;28;20231;-78
2023/02/25 08:06:50;;;;;;;0.57;0.50;;;;;;;3.74;63.56;96153.84;6234320;28;20223;-79
2023/02/25 08:09:53;;;;;;;2.37;0.70;;;;;;;3.87;63.47;96179.09;6215961;28;21295;-79
2023/02/25 08:12:55;;;;;;;0.60;0.50;;;;;;;3.85;63.90;96203.06;6221642;28;20573;-77
2023/02/25 08:15:57;;;;;;;1.37;0.70;;;;;;;3.97;63.70;96197.72;6244732;28;20594;-78
2023/02/25 08:19:00;;;;;;;1.03;0.80;;;;;;;4.45;61.24;96196.44;6252357;28;20615;-78
2023/02/25 08:22:03;;;;;;;0.87;0.80;;;;;;;5.51;58.72;96227.22;6247792;28;21015;-78
2023/02/25 08:25:05;;;;;;;0.70;0.67;;;;;;;6.25;55.96;96240.78;6228983;28;20797;-82
2023/02/25 08:28:08;;;;;;;1.07;0.90;;;;;;;6.46;54.89;96225.94;6255074;28;20227;-79
2023/02/25 08:31:11;;;;;;;1.33;0.80;;;;;;;6.80;54.66;96237.06;6244904;28;20232;-79
2023/02/25 08:34:17;;;;;;;0.70;0.70;;;;;;;5.83;56.62;96245.88;6244757;28;20273;-77
2023/02/25 08:37:21;;;;;;;1.00;0.70;;;;;;;5.26;59.42;96233.78;6254599;28;20242;-81
2023/02/25 08:40:23;;;;;;;0.93;0.73;;;;;;;5.25;59.62;96261.22;6269569;28;20628;-79
2023/02/25 08:43:26;;;;;;;0.80;0.60;;;;;;;5.40;59.47;96252.72;6269243;28;20727;-83
2023/02/25 08:46:31;;;;;;;1.33;0.70;;;;;;;5.34;58.79;96211.44;6255944;28;20774;-85
2023/02/25 08:49:33;;;;;;;0.80;0.63;;;;;;;5.85;58.33;96254.34;6248125;28;20232;-82
2023/02/25 08:52:35;;;;;;;0.93;0.63;;;;;;;5.77;57.70;96245.00;6240623;28;20362;-83
2023/02/25 08:55:38;;;;;;;0.60;0.60;;;;;;;5.55;57.46;96209.84;6246843;28;20568;-82
2023/02/25 08:58:41;;;;;;;2.30;0.80;;;;;;;6.14;57.10;96265.53;6267844;28;20230;-79
2023/02/25 09:01:44;;;;;;;1.30;0.70;;;;;;;6.23;56.01;96250.81;6267120;28;21886;-79
2023/02/25 09:04:46;;;;;;;0.70;0.60;;;;;;;5.88;56.35;96195.72;6255375;28;20746;-81
2023/02/25 09:07:51;;;;;;;0.70;0.60;;;;;;;6.85;56.13;96276.81;6266543;28;20309;-81
2023/02/25 09:10:53;;;;;;;0.83;0.83;;;;;;;6.81;54.07;96266.97;6236118;28;20263;-81
2023/02/25 09:13:56;;;;;;;1.37;0.90;;;;;;;6.60;53.35;96256.22;6255932;28;20910;-82
2023/02/25 09:16:58;;;;;;;1.30;0.70;;;;;;;6.16;54.40;96229.09;6254953;28;20584;-80
2023/02/25 09:20:00;;;;;;;1.53;1.10;;;;;;;6.36;55.38;96245.16;6263073;28;20232;-79
2023/02/25 09:23:02;;;;;;;1.10;0.90;;;;;;;6.44;54.67;96254.47;6274135;28;20614;-80
2023/02/25 09:26:06;;;;;;;0.83;0.73;;;;;;;5.59;53.94;96106.09;6266430;28;20748;-81
2023/02/25 09:29:09;;;;;;;1.33;0.90;;;;;;;6.66;54.35;96265.78;6259066;28;20299;-80
2023/02/25 09:32:18;;;;;;;1.70;0.90;;;;;;;6.70;53.23;96253.66;6242457;28;20228;-79
2023/02/25 09:35:21;;;;;;;1.90;0.90;;;;;;;6.83;53.17;96257.72;6249945;28;20238;-80
2023/02/25 09:38:23;;;;;;;2.43;1.30;;;;;;;6.62;52.34;96210.97;6249240;28;20309;-80
2023/02/25 09:41:34;;;;;;;2.70;1.00;;;;;;;7.05;51.12;96285.97;6242453;28;20778;-84
2023/02/25 09:44:46;;;;;;;3.90;1.23;;;;;;;6.62;50.70;96288.50;6265991;28;20298;-83
2023/02/25 09:47:56;;;;;;;1.70;1.17;;;;;;;7.02;52.45;96254.69;6274312;28;20286;-81
2023/02/25 09:51:22;;;;;;;1.83;0.90;;;;;;;7.41;51.45;96271.91;6259789;28;20225;-81
2023/02/25 09:54:41;;;;;;;2.03;0.97;;;;;;;7.29;48.69;96281.91;6263337;28;20722;-79
2023/02/25 09:57:46;;;;;;;3.10;1.00;;;;;;;7.09;50.25;96284.38;6235829;28;20353;-80
2023/02/25 10:01:03;;;;;;;2.23;1.00;;;;;;;7.40;48.73;96294.16;6202626;28;20452;-80
2023/02/25 10:04:21;;;;;;;2.40;1.00;;;;;;;6.97;49.62;96276.63;6249263;28;20402;-81
2023/02/25 10:07:41;;;;;;;1.53;1.07;;;;;;;6.86;49.27;96228.09;6239421;28;20256;-82
2023/02/25 10:11:08;;;;;;;1.13;0.93;;;;;;;7.53;47.93;96274.34;6264429;28;20225;-84
2023/02/25 10:14:35;;;;;;;1.63;0.93;;;;;;;8.13;46.62;96275.69;6264165;28;20220;-83
2023/02/25 10:17:45;;;;;;;1.40;1.00;;;;;;;8.19;45.98;96248.13;6251682;28;20234;-83
2023/02/25 10:21:24;;;;;;;3.23;0.90;;;;;;;8.57;45.37;96274.47;6254508;28;20716;-81
2023/02/25 10:24:37;;;;;;;2.00;0.97;;;;;;;8.35;45.70;96275.47;6254789;28;20288;-82
2023/02/25 10:27:51;;;;;;;2.47;1.00;;;;;;;7.98;43.94;96243.81;6267041;28;21394;-80
2023/02/25 10:31:06;;;;;;;1.87;0.87;;;;;;;8.09;45.60;96260.56;6261295;28;20383;-80
2023/02/25 10:34:24;;;;;;;1.30;0.80;;;;;;;8.24;44.46;96242.03;6255032;28;20231;-81
2023/02/25 10:37:34;;;;;;;2.47;1.10;;;;;;;7.85;44.33;96250.38;6276926;28;20226;-81
2023/02/25 10:40:36;;;;;;;2.30;1.00;;;;;;;7.48;46.26;96245.97;6256508;28;20224;-81
2023/02/25 10:43:41;;;;;;;1.93;1.03;;;;;;;7.12;46.21;96215.03;6232142;28;20320;-80
2023/02/25 10:47:10;;;;;;;2.47;1.10;;;;;;;7.61;48.98;96230.66;6261128;28;20244;-79
2023/02/25 10:50:25;;;;;;;1.90;0.80;;;;;;;7.66;45.68;96212.94;6246684;28;20339;-79
2023/02/25 10:53:51;;;;;;;3.37;1.13;;;;;;;7.98;44.50;96202.19;6264474;28;20217;-80
2023/02/25 10:56:54;;;;;;;1.50;0.70;;;;;;;7.52;44.84;96190.59;6273454;28;20241;-82
2023/02/25 11:00:20;;;;;;;1.33;0.70;;;;;;;7.74;44.05;96187.78;6252485;28;20658;-82
2023/02/25 11:03:24;;;;;;;2.30;0.80;;;;;;;7.89;43.96;96184.38;6255749;28;20306;-81
2023/02/25 11:06:36;;;;;;;1.13;0.63;;;;;;;7.46;45.34;96181.06;6275256;28;20700;-81
2023/02/25 11:09:38;;;;;;;0.60;0.60;;;;;;;7.60;44.49;96174.22;6255059;28;20311;-81
2023/02/25 11:12:52;;;;;;;1.07;0.80;;;;;;;8.11;43.71;96187.59;6265554;28;20704;-80
2023/02/25 11:15:56;;;;;;;5.23;0.87;;;;;;;7.35;44.49;96187.38;6270372;28;20723;-80
2023/02/25 11:19:01;;;;;;;1.60;0.67;;;;;;;7.35;43.07;96172.25;6269708;28;20747;-80
2023/02/25 11:22:18;;;;;;;1.07;0.50;;;;;;;6.80;45.06;96181.47;6233680;28;20250;-80
2023/02/25 11:25:33;;;;;;;2.27;0.90;;;;;;;7.07;44.24;96143.50;6242396;28;20247;-78
2023/02/25 11:28:58;;;;;;;3.10;0.87;;;;;;;7.81;44.18;96169.78;6264050;28;20316;-80
2023/02/25 11:32:12;;;;;;;3.43;0.93;;;;;;;8.09;43.33;96176.47;6271868;28;20258;-80
2023/02/25 11:35:19;;;;;;;2.70;0.80;;;;;;;8.09;44.19;96155.25;6245775;28;20723;-81
2023/02/25 11:38:31;;;;;;;3.40;0.80;;;;;;;8.32;42.63;96167.19;6252358;28;20256;-82
2023/02/25 11:41:33;;;;;;;2.60;0.70;;;;;;;8.43;42.82;96176.81;6252508;28;20276;-80
2023/02/25 11:44:44;;;;;;;1.37;0.90;;;;;;;8.63;42.43;96181.34;6246275;28;20566;-83
2023/02/25 11:47:48;;;;;;;1.63;0.70;;;;;;;8.20;44.90;96177.28;6269499;28;20222;-80
2023/02/25 11:51:01;;;;;;;1.67;0.70;;;;;;;8.44;43.64;96173.09;6276435;28;20720;-83
2023/02/25 11:54:38;;;;;;;1.30;1.10;;;;;;;8.69;43.49;96176.81;6268276;28;20229;-81
2023/02/25 11:57:43;;;;;;;1.07;0.63;;;;;;;8.36;43.49;96159.53;6239846;28;20257;-82
2023/02/25 12:01:11;;;;;;;1.83;0.80;;;;;;;8.19;42.98;96165.88;6237380;28;20667;-80
2023/02/25 12:04:13;;;;;;;2.13;0.87;;;;;;;8.17;42.80;96177.81;6254568;28;20226;-79
2023/02/25 12:07:54;;;;;;;1.43;0.80;;;;;;;7.71;44.48;96188.28;6260764;28;20433;-80
2023/02/25 12:11:47;;;;;;;1.20;1.03;;;;;;;7.97;44.76;96152.84;6225360;28;20330;-81
2023/02/25 12:15:10;;;;;;;2.70;0.80;;;;;;;8.19;44.42;96196.91;6263937;28;20664;-81
2023/02/25 12:18:31;;;;;;;2.10;0.70;;;;;;;8.08;45.22;96169.59;6245056;28;20231;-80
2023/02/25 12:22:03;;;;;;;1.60;0.70;;;;;;;7.83;43.67;96174.81;6255448;28;20299;-85
2023/02/25 12:25:28;;;;;;;2.00;0.77;;;;;;;7.97;44.18;96183.84;6248109;28;20655;-82
2023/02/25 12:28:50;;;;;;;2.40;1.00;;;;;;;7.88;43.05;96135.88;6247467;28;20750;-80
2023/02/25 12:32:04;;;;;;;1.80;0.90;;;;;;;7.56;42.26;96133.38;6231716;28;20232;-79
2023/02/25 12:35:34;;;;;;;1.93;0.80;;;;;;;7.78;42.90;96161.53;6262972;28;20777;-82
2023/02/25 12:38:52;;;;;;;2.33;0.80;;;;;;;7.79;44.42;96184.38;6260848;28;20281;-82
2023/02/25 12:42:04;;;;;;;1.20;0.60;;;;;;;7.82;41.83;96170.56;6290947;28;20230;-81
2023/02/25 12:45:47;;;;;;;1.43;0.60;;;;;;;7.89;41.25;96165.81;6273414;28;20250;-81
2023/02/25 12:49:10;;;;;;;2.07;0.53;;;;;;;7.82;40.29;96159.97;6287791;28;20238;-78
2023/02/25 12:52:22;;;;;;;0.80;0.57;;;;;;;7.73;41.19;96128.69;6290810;28;20276;-81
2023/02/25 12:55:43;;;;;;;1.37;0.97;;;;;;;8.34;39.81;96181.03;6285213;28;20239;-78
2023/02/25 12:59:22;;;;;;;1.13;0.70;;;;;;;8.12;39.30;96172.50;6256888;28;20226;-83
2023/02/25 13:02:41;;;;;;;0.90;0.60;;;;;;;8.09;38.59;96183.63;6270939;28;20222;-81
2023/02/25 13:06:21;;;;;;;1.13;0.60;;;;;;;7.47;39.09;96048.31;6273132;28;20231;-83
2023/02/25 13:09:42;;;;;;;0.90;0.50;;;;;;;8.34;38.46;96182.88;6216669;28;20238;-83
2023/02/25 13:13:45;;;;;;;1.83;0.70;;;;;;;8.40;37.93;96198.56;6253768;28;20583;-80
2023/02/25 13:17:08;;;;;;;1.10;0.50;;;;;;;8.43;38.64;96198.03;6257227;28;20238;-79
2023/02/25 13:20:13;;;;;;;1.03;0.50;;;;;;;8.08;37.62;96222.63;6260752;28;20217;-80
2023/02/25 13:23:55;;;;;;;1.30;1.00;;;;;;;8.09;39.08;96203.00;6251183;28;20219;-83
2023/02/25 13:27:12;;;;;;;1.40;0.60;;;;;;;7.92;39.38;96221.75;6274811;28;20222;-80
2023/02/25 13:30:38;;;;;;;0.93;0.60;;;;;;;7.80;39.36;96207.16;6267501;28;20222;-80
2023/02/25 13:33:44;;;;;;;0.57;0.33;;;;;;;7.81;39.47;96219.34;6279726;28;20229;-80
2023/02/25 13:37:13;;;;;;;0.83;0.60;;;;;;;7.79;38.89;96193.09;6276078;28;20234;-80
2023/02/25 13:40:37;;;;;;;1.83;0.80;;;;;;;7.95;39.58;96208.00;6261590;28;20233;-80
2023/02/25 13:44:12;;;;;;;1.10;0.33;;;;;;;8.06;39.54;96198.22;6263908;28;20288;-81
2023/02/25 13:48:04;;;;;;;1.07;0.63;;;;;;;7.87;39.22;96210.34;6158716;28;20248;-80
2023/02/25 13:51:12;;;;;;;1.23;0.77;;;;;;;7.79;40.17;96218.81;6174077;28;20695;-80
2023/02/25 13:54:33;;;;;;;3.83;1.00;;;;;;;7.53;40.40;96231.94;6169119;28;20218;-79
2023/02/25 13:57:58;;;;;;;1.23;0.70;;;;;;;7.24;41.35;96220.91;6149709;28;20770;-80
2023/02/25 14:01:28;;;;;;;3.83;0.80;;;;;;;6.97;41.82;96198.00;6123928;28;20762;-80
2023/02/25 14:05:03;;;;;;;0.70;0.70;;;;;;;7.10;42.87;96243.63;6127990;28;20237;-79
2023/02/25 14:08:27;;;;;;;1.23;0.50;;;;;;;7.15;41.75;96257.69;6162934;28;20231;-79
2023/02/25 14:12:04;;;;;;;1.87;0.67;;;;;;;7.39;41.44;96247.53;6159538;28;20244;-78
2023/02/25 14:15:46;;;;;;;2.83;0.70;;;;;;;7.04;41.47;96253.38;6161546;28;20609;-78
2023/02/25 14:19:09;;;;;;;0.53;0.53;;;;;;;6.75;42.42;96260.00;6140254;28;20234;-78
2023/02/25 14:22:15;;;;;;;2.77;0.70;;;;;;;6.85;42.38;96287.41;6157901;28;20270;-78
2023/02/25 14:25:39;;;;;;;1.23;0.70;;;;;;;6.94;42.84;96282.41;6246896;28;20238;-80
2023/02/25 14:29:13;;;;;;;2.00;0.90;;;;;;;7.03;42.83;96283.53;6270059;28;20239;-80
2023/02/25 14:32:47;;;;;;;1.37;0.60;;;;;;;7.16;42.81;96280.47;6266615;28;20236;-77
2023/02/25 14:36:01;;;;;;;2.73;0.70;;;;;;;7.31;43.63;96295.69;6264974;28;20245;-78
2023/02/25 14:39:20;;;;;;;1.53;1.03;;;;;;;7.24;44.35;96309.16;6241761;28;20349;-78
2023/02/25 14:42:58;;;;;;;3.10;0.83;;;;;;;6.95;43.17;96290.13;6225092;28;20239;-79
2023/02/25 14:46:27;;;;;;;1.33;0.80;;;;;;;7.03;43.11;96280.91;6243670;28;20749;-78
2023/02/25 14:49:46;;;;;;;2.73;0.80;;;;;;;7.10;43.80;96293.94;6260716;28;20240;-79
2023/02/25 14:52:57;;;;;;;1.83;1.00;;;;;;;6.98;43.84;96276.38;6270141;28;20234;-79
2023/02/25 14:56:47;;;;;;;3.00;1.67;;;;;;;7.04;44.81;96292.28;6262348;28;20236;-79
2023/02/25 15:00:26;;;;;;;2.13;0.73;;;;;;;6.73;44.22;96290.19;6109089;28;20596;-79
2023/02/25 15:03:56;;;;;;;3.37;1.30;;;;;;;6.35;45.35;96299.06;6127215;28;20277;-78
2023/02/25 15:07:16;;;;;;;9.77;5.50;;;;;;;6.53;47.28;96291.84;6265229;28;20309;-80